Terminal Aerodrome Forecast
Issued by NWS Twin Cities, MN

Home | Current Version | Previous Version | Graphics & Text | Print | Product List | Glossary On
Versions: 1 2 3 4 5 6 7 8 9 10 11 12 13 14 15 16 17 18 19 20 21 22 23 24 25 26 27 28 29 30
000
FTUS43 KMPX 271120
TAFMSP
TAF
KMSP 271120Z 2712/2818 13008KT P6SM SCT040
     FM271700 14011G16KT P6SM SCT050
     FM280200 15008KT P6SM BKN050
     FM280900 14014G22KT P6SM VCTS BKN040CB
      TEMPO 2810/2814 5SM -TSRA BKN035CB
     FM281500 14012KT P6SM BKN040=

USA.gov is the U.S. government's official web portal to all federal, state and local government web resources and services.